sensor_id;sensor_type;location;lat;lon;timestamp;temperature;humidity
28336;DHT22;15592;53.656;7.276;2022-08-18T00:02:26;18.20;99.90
28336;DHT22;15592;53.656;7.276;2022-08-18T00:04:53;18.30;99.90
28336;DHT22;15592;53.656;7.276;2022-08-18T00:07:28;18.30;99.90
28336;DHT22;15592;53.656;7.276;2022-08-18T00:12:27;18.30;99.90
28336;DHT22;15592;53.656;7.276;2022-08-18T00:14:53;18.30;99.90
28336;DHT22;15592;53.656;7.276;2022-08-18T00:17:20;18.30;99.90
28336;DHT22;15592;53.656;7.276;2022-08-18T00:19:46;18.40;99.90
28336;DHT22;15592;53.656;7.276;2022-08-18T00:22:15;18.40;99.90
28336;DHT22;15592;53.656;7.276;2022-08-18T00:24:42;18.40;99.90
28336;DHT22;15592;53.656;7.276;2022-08-18T00:27:07;18.40;99.90
28336;DHT22;15592;53.656;7.276;2022-08-18T00:29:35;18.50;99.90
28336;DHT22;15592;53.656;7.276;2022-08-18T00:32:11;18.50;99.90
28336;DHT22;15592;53.656;7.276;2022-08-18T00:34:37;18.50;99.90
28336;DHT22;15592;53.656;7.276;2022-08-18T00:37:03;18.50;99.90
28336;DHT22;15592;53.656;7.276;2022-08-18T00:39:29;18.50;99.90
28336;DHT22;15592;53.656;7.276;2022-08-18T00:41:55;18.40;99.90
28336;DHT22;15592;53.656;7.276;2022-08-18T00:44:20;18.40;99.90
28336;DHT22;15592;53.656;7.276;2022-08-18T00:46:46;18.40;99.90
28336;DHT22;15592;53.656;7.276;2022-08-18T00:49:11;18.40;99.90
28336;DHT22;15592;53.656;7.276;2022-08-18T00:51:45;18.40;99.90
28336;DHT22;15592;53.656;7.276;2022-08-18T00:56:45;18.40;99.90
28336;DHT22;15592;53.656;7.276;2022-08-18T01:01:40;18.30;99.90
28336;DHT22;15592;53.656;7.276;2022-08-18T01:04:18;18.30;99.90
28336;DHT22;15592;53.656;7.276;2022-08-18T01:06:55;18.30;99.90
28336;DHT22;15592;53.656;7.276;2022-08-18T01:09:22;18.30;99.90
28336;DHT22;15592;53.656;7.276;2022-08-18T01:11:48;18.30;99.90
28336;DHT22;15592;53.656;7.276;2022-08-18T01:14:15;18.30;99.90
28336;DHT22;15592;53.656;7.276;2022-08-18T01:16:43;18.30;99.90
28336;DHT22;15592;53.656;7.276;2022-08-18T01:19:28;18.30;99.90
28336;DHT22;15592;53.656;7.276;2022-08-18T01:25:12;18.30;99.90
28336;DHT22;15592;53.656;7.276;2022-08-18T01:27:57;18.40;99.90
28336;DHT22;15592;53.656;7.276;2022-08-18T01:30:23;18.40;99.90
28336;DHT22;15592;53.656;7.276;2022-08-18T01:32:52;18.40;99.90
28336;DHT22;15592;53.656;7.276;2022-08-18T01:35:19;18.50;99.90
28336;DHT22;15592;53.656;7.276;2022-08-18T01:37:45;18.50;99.90
28336;DHT22;15592;53.656;7.276;2022-08-18T01:40:13;18.60;99.90
28336;DHT22;15592;53.656;7.276;2022-08-18T01:42:40;18.60;99.90
28336;DHT22;15592;53.656;7.276;2022-08-18T01:45:09;18.60;99.90
28336;DHT22;15592;53.656;7.276;2022-08-18T01:47:35;18.60;99.90
28336;DHT22;15592;53.656;7.276;2022-08-18T01:50:02;18.70;99.90
28336;DHT22;15592;53.656;7.276;2022-08-18T01:52:29;18.70;99.90
28336;DHT22;15592;53.656;7.276;2022-08-18T01:54:55;18.70;99.90
28336;DHT22;15592;53.656;7.276;2022-08-18T01:57:23;18.70;99.90
28336;DHT22;15592;53.656;7.276;2022-08-18T01:59:49;18.80;99.90
28336;DHT22;15592;53.656;7.276;2022-08-18T02:02:19;18.70;99.90
28336;DHT22;15592;53.656;7.276;2022-08-18T02:04:47;18.80;99.90
28336;DHT22;15592;53.656;7.276;2022-08-18T02:07:13;18.70;99.90
28336;DHT22;15592;53.656;7.276;2022-08-18T02:09:40;18.70;99.90
28336;DHT22;15592;53.656;7.276;2022-08-18T02:12:07;18.70;99.90
28336;DHT22;15592;53.656;7.276;2022-08-18T02:14:34;18.70;99.90
28336;DHT22;15592;53.656;7.276;2022-08-18T02:17:02;18.70;99.90
28336;DHT22;15592;53.656;7.276;2022-08-18T02:19:34;18.70;99.90
28336;DHT22;15592;53.656;7.276;2022-08-18T02:22:02;18.70;99.90
28336;DHT22;15592;53.656;7.276;2022-08-18T02:24:28;18.70;99.90
28336;DHT22;15592;53.656;7.276;2022-08-18T02:26:53;18.70;99.90
28336;DHT22;15592;53.656;7.276;2022-08-18T02:29:19;18.70;99.90
28336;DHT22;15592;53.656;7.276;2022-08-18T02:31:44;18.70;99.90
28336;DHT22;15592;53.656;7.276;2022-08-18T02:34:10;18.70;99.90
28336;DHT22;15592;53.656;7.276;2022-08-18T02:36:36;18.60;99.90
28336;DHT22;15592;53.656;7.276;2022-08-18T02:39:01;18.60;99.90
28336;DHT22;15592;53.656;7.276;2022-08-18T02:41:27;18.60;99.90
28336;DHT22;15592;53.656;7.276;2022-08-18T02:43:53;18.60;99.90
28336;DHT22;15592;53.656;7.276;2022-08-18T02:46:18;18.60;99.90
28336;DHT22;15592;53.656;7.276;2022-08-18T02:48:44;18.60;99.90
28336;DHT22;15592;53.656;7.276;2022-08-18T02:51:13;18.60;99.90
28336;DHT22;15592;53.656;7.276;2022-08-18T02:53:41;18.60;99.90
28336;DHT22;15592;53.656;7.276;2022-08-18T02:56:16;18.60;99.90
28336;DHT22;15592;53.656;7.276;2022-08-18T02:58:55;18.60;99.90
28336;DHT22;15592;53.656;7.276;2022-08-18T03:01:22;18.60;99.90
28336;DHT22;15592;53.656;7.276;2022-08-18T03:03:49;18.60;99.90
28336;DHT22;15592;53.656;7.276;2022-08-18T03:06:16;18.50;99.90
28336;DHT22;15592;53.656;7.276;2022-08-18T03:08:42;18.50;99.90
28336;DHT22;15592;53.656;7.276;2022-08-18T03:11:14;18.60;99.90
28336;DHT22;15592;53.656;7.276;2022-08-18T03:13:39;18.60;99.90
28336;DHT22;15592;53.656;7.276;2022-08-18T03:16:05;18.60;99.90
28336;DHT22;15592;53.656;7.276;2022-08-18T03:18:30;18.60;99.90
28336;DHT22;15592;53.656;7.276;2022-08-18T03:20:56;18.60;99.90
28336;DHT22;15592;53.656;7.276;2022-08-18T03:23:23;18.60;99.90
28336;DHT22;15592;53.656;7.276;2022-08-18T03:25:49;18.60;99.90
28336;DHT22;15592;53.656;7.276;2022-08-18T03:28:16;18.60;99.90
28336;DHT22;15592;53.656;7.276;2022-08-18T03:30:42;18.60;99.90
28336;DHT22;15592;53.656;7.276;2022-08-18T03:33:08;18.60;99.90
28336;DHT22;15592;53.656;7.276;2022-08-18T03:35:35;18.60;99.90
28336;DHT22;15592;53.656;7.276;2022-08-18T03:38:02;18.60;99.90
28336;DHT22;15592;53.656;7.276;2022-08-18T03:40:27;18.60;99.90
28336;DHT22;15592;53.656;7.276;2022-08-18T03:42:53;18.50;99.90
28336;DHT22;15592;53.656;7.276;2022-08-18T03:45:18;18.60;99.90
28336;DHT22;15592;53.656;7.276;2022-08-18T03:47:44;18.60;99.90
28336;DHT22;15592;53.656;7.276;2022-08-18T03:50:11;18.50;99.90
28336;DHT22;15592;53.656;7.276;2022-08-18T03:52:37;18.50;99.90
28336;DHT22;15592;53.656;7.276;2022-08-18T03:55:03;18.50;99.90
28336;DHT22;15592;53.656;7.276;2022-08-18T03:57:29;18.60;99.90
28336;DHT22;15592;53.656;7.276;2022-08-18T03:59:57;18.50;99.90
28336;DHT22;15592;53.656;7.276;2022-08-18T04:02:23;18.50;99.90
28336;DHT22;15592;53.656;7.276;2022-08-18T04:04:49;18.50;99.90
28336;DHT22;15592;53.656;7.276;2022-08-18T04:07:15;18.50;99.90
28336;DHT22;15592;53.656;7.276;2022-08-18T04:09:42;18.50;99.90
28336;DHT22;15592;53.656;7.276;2022-08-18T04:12:11;18.50;99.90
28336;DHT22;15592;53.656;7.276;2022-08-18T04:14:40;18.40;99.90
28336;DHT22;15592;53.656;7.276;2022-08-18T04:17:07;18.40;99.90
28336;DHT22;15592;53.656;7.276;2022-08-18T04:19:33;18.40;99.90
28336;DHT22;15592;53.656;7.276;2022-08-18T04:22:01;18.50;99.90
28336;DHT22;15592;53.656;7.276;2022-08-18T04:24:30;18.50;99.90
28336;DHT22;15592;53.656;7.276;2022-08-18T04:26:58;18.50;99.90
28336;DHT22;15592;53.656;7.276;2022-08-18T04:29:25;18.50;99.90
28336;DHT22;15592;53.656;7.276;2022-08-18T04:31:51;18.50;99.90
28336;DHT22;15592;53.656;7.276;2022-08-18T04:34:18;18.50;99.90
28336;DHT22;15592;53.656;7.276;2022-08-18T04:36:45;18.50;99.90
28336;DHT22;15592;53.656;7.276;2022-08-18T04:39:11;18.50;99.90
28336;DHT22;15592;53.656;7.276;2022-08-18T04:41:39;18.50;99.90
28336;DHT22;15592;53.656;7.276;2022-08-18T04:44:08;18.50;99.90
28336;DHT22;15592;53.656;7.276;2022-08-18T04:46:37;18.50;99.90
28336;DHT22;15592;53.656;7.276;2022-08-18T04:49:04;18.50;99.90
28336;DHT22;15592;53.656;7.276;2022-08-18T04:51:30;18.40;99.90
28336;DHT22;15592;53.656;7.276;2022-08-18T04:53:56;18.50;99.90
28336;DHT22;15592;53.656;7.276;2022-08-18T04:56:23;18.50;99.90
28336;DHT22;15592;53.656;7.276;2022-08-18T04:59:01;18.40;99.90
28336;DHT22;15592;53.656;7.276;2022-08-18T05:01:33;18.50;99.90
28336;DHT22;15592;53.656;7.276;2022-08-18T05:04:00;18.50;99.90
28336;DHT22;15592;53.656;7.276;2022-08-18T05:06:27;18.40;99.90
28336;DHT22;15592;53.656;7.276;2022-08-18T05:08:54;18.40;99.90
28336;DHT22;15592;53.656;7.276;2022-08-18T05:11:22;18.40;99.90
28336;DHT22;15592;53.656;7.276;2022-08-18T05:13:49;18.40;99.90
28336;DHT22;15592;53.656;7.276;2022-08-18T05:16:16;18.40;99.90
28336;DHT22;15592;53.656;7.276;2022-08-18T05:18:42;18.40;99.90
28336;DHT22;15592;53.656;7.276;2022-08-18T05:21:08;18.40;99.90
28336;DHT22;15592;53.656;7.276;2022-08-18T05:23:45;18.30;99.90
28336;DHT22;15592;53.656;7.276;2022-08-18T05:26:11;18.40;99.90
28336;DHT22;15592;53.656;7.276;2022-08-18T05:28:41;18.40;99.90
28336;DHT22;15592;53.656;7.276;2022-08-18T05:31:18;18.40;99.90
28336;DHT22;15592;53.656;7.276;2022-08-18T05:33:45;18.40;99.90
28336;DHT22;15592;53.656;7.276;2022-08-18T05:41:28;18.40;99.90
28336;DHT22;15592;53.656;7.276;2022-08-18T05:43:56;18.40;99.90
28336;DHT22;15592;53.656;7.276;2022-08-18T05:46:31;18.50;99.90
28336;DHT22;15592;53.656;7.276;2022-08-18T05:48:58;18.40;99.90
28336;DHT22;15592;53.656;7.276;2022-08-18T05:51:44;18.40;99.90
28336;DHT22;15592;53.656;7.276;2022-08-18T05:54:11;18.50;99.90
28336;DHT22;15592;53.656;7.276;2022-08-18T05:56:59;18.50;99.90
28336;DHT22;15592;53.656;7.276;2022-08-18T05:59:31;18.50;99.90
28336;DHT22;15592;53.656;7.276;2022-08-18T06:02:49;18.50;99.90
28336;DHT22;15592;53.656;7.276;2022-08-18T06:04:52;18.50;99.90
28336;DHT22;15592;53.656;7.276;2022-08-18T06:09:56;18.50;99.90
28336;DHT22;15592;53.656;7.276;2022-08-18T06:26:06;18.40;99.90
28336;DHT22;15592;53.656;7.276;2022-08-18T06:28:39;18.40;99.90
28336;DHT22;15592;53.656;7.276;2022-08-18T06:31:29;18.40;99.90
28336;DHT22;15592;53.656;7.276;2022-08-18T06:34:07;18.40;99.90
28336;DHT22;15592;53.656;7.276;2022-08-18T06:36:38;18.40;99.90
28336;DHT22;15592;53.656;7.276;2022-08-18T06:39:23;18.40;99.90
28336;DHT22;15592;53.656;7.276;2022-08-18T06:41:51;18.40;99.90
28336;DHT22;15592;53.656;7.276;2022-08-18T06:49:49;18.40;99.90
28336;DHT22;15592;53.656;7.276;2022-08-18T06:54:56;18.40;99.90
28336;DHT22;15592;53.656;7.276;2022-08-18T06:57:37;18.40;99.90
28336;DHT22;15592;53.656;7.276;2022-08-18T07:10:34;18.40;99.90
28336;DHT22;15592;53.656;7.276;2022-08-18T07:15:40;18.30;99.90
28336;DHT22;15592;53.656;7.276;2022-08-18T07:18:07;18.40;99.90
28336;DHT22;15592;53.656;7.276;2022-08-18T07:20:46;18.40;99.90
28336;DHT22;15592;53.656;7.276;2022-08-18T07:23:38;18.40;99.90
28336;DHT22;15592;53.656;7.276;2022-08-18T07:26:13;18.40;99.90
28336;DHT22;15592;53.656;7.276;2022-08-18T07:28:46;18.40;99.90
28336;DHT22;15592;53.656;7.276;2022-08-18T07:31:39;18.50;99.90
28336;DHT22;15592;53.656;7.276;2022-08-18T07:34:37;18.60;99.90
28336;DHT22;15592;53.656;7.276;2022-08-18T07:37:20;18.60;99.90
28336;DHT22;15592;53.656;7.276;2022-08-18T07:39:56;18.70;99.90
28336;DHT22;15592;53.656;7.276;2022-08-18T07:42:41;18.70;99.90
28336;DHT22;15592;53.656;7.276;2022-08-18T07:45:18;18.70;99.90
28336;DHT22;15592;53.656;7.276;2022-08-18T07:48:06;18.70;99.90
28336;DHT22;15592;53.656;7.276;2022-08-18T07:50:47;18.70;99.90
28336;DHT22;15592;53.656;7.276;2022-08-18T07:54:08;18.80;99.90
28336;DHT22;15592;53.656;7.276;2022-08-18T07:59:29;18.80;99.90
28336;DHT22;15592;53.656;7.276;2022-08-18T08:07:39;18.80;99.90
28336;DHT22;15592;53.656;7.276;2022-08-18T08:15:43;18.80;99.90
28336;DHT22;15592;53.656;7.276;2022-08-18T08:18:35;18.80;99.90
28336;DHT22;15592;53.656;7.276;2022-08-18T08:21:08;18.90;99.90
28336;DHT22;15592;53.656;7.276;2022-08-18T08:26:56;18.80;99.90
28336;DHT22;15592;53.656;7.276;2022-08-18T08:32:50;18.90;99.90
28336;DHT22;15592;53.656;7.276;2022-08-18T08:34:54;18.90;99.90
28336;DHT22;15592;53.656;7.276;2022-08-18T08:38:11;18.80;99.90
28336;DHT22;15592;53.656;7.276;2022-08-18T08:40:21;18.80;99.90
28336;DHT22;15592;53.656;7.276;2022-08-18T08:42:55;18.80;99.90
28336;DHT22;15592;53.656;7.276;2022-08-18T08:45:27;18.80;99.90
28336;DHT22;15592;53.656;7.276;2022-08-18T08:50:28;18.80;99.90
28336;DHT22;15592;53.656;7.276;2022-08-18T08:53:00;18.80;99.90
28336;DHT22;15592;53.656;7.276;2022-08-18T08:55:42;18.80;99.90
28336;DHT22;15592;53.656;7.276;2022-08-18T08:58:24;18.80;99.90
28336;DHT22;15592;53.656;7.276;2022-08-18T09:00:53;18.70;99.90
28336;DHT22;15592;53.656;7.276;2022-08-18T09:19:52;18.90;99.90
28336;DHT22;15592;53.656;7.276;2022-08-18T09:22:26;18.90;99.90
28336;DHT22;15592;53.656;7.276;2022-08-18T09:24:56;19.00;99.90
28336;DHT22;15592;53.656;7.276;2022-08-18T09:27:43;19.00;99.90
28336;DHT22;15592;53.656;7.276;2022-08-18T09:30:39;19.00;99.90
28336;DHT22;15592;53.656;7.276;2022-08-18T09:36:16;19.10;99.90
28336;DHT22;15592;53.656;7.276;2022-08-18T09:41:57;19.10;99.90
28336;DHT22;15592;53.656;7.276;2022-08-18T09:47:56;19.00;99.90
28336;DHT22;15592;53.656;7.276;2022-08-18T09:57:32;18.80;99.90
28336;DHT22;15592;53.656;7.276;2022-08-18T10:00:28;18.80;99.90
28336;DHT22;15592;53.656;7.276;2022-08-18T10:05:28;18.80;99.90
28336;DHT22;15592;53.656;7.276;2022-08-18T10:13:32;18.70;99.90
28336;DHT22;15592;53.656;7.276;2022-08-18T10:19:26;18.80;99.90
28336;DHT22;15592;53.656;7.276;2022-08-18T10:37:02;19.10;99.90
28336;DHT22;15592;53.656;7.276;2022-08-18T10:42:13;19.10;99.90
28336;DHT22;15592;53.656;7.276;2022-08-18T10:44:47;19.10;99.90
28336;DHT22;15592;53.656;7.276;2022-08-18T10:47:28;19.30;99.90
28336;DHT22;15592;53.656;7.276;2022-08-18T10:49:54;19.40;99.90
28336;DHT22;15592;53.656;7.276;2022-08-18T10:58:17;19.30;99.90
28336;DHT22;15592;53.656;7.276;2022-08-18T11:06:24;19.30;99.90
28336;DHT22;15592;53.656;7.276;2022-08-18T11:08:54;19.30;99.90
28336;DHT22;15592;53.656;7.276;2022-08-18T11:11:21;19.20;99.90
28336;DHT22;15592;53.656;7.276;2022-08-18T11:19:50;19.20;99.90
28336;DHT22;15592;53.656;7.276;2022-08-18T11:22:32;19.20;99.90
28336;DHT22;15592;53.656;7.276;2022-08-18T11:24:59;19.30;99.90
28336;DHT22;15592;53.656;7.276;2022-08-18T11:27:31;19.40;99.90
28336;DHT22;15592;53.656;7.276;2022-08-18T11:30:04;19.50;99.90
28336;DHT22;15592;53.656;7.276;2022-08-18T11:39:50;19.60;99.90
28336;DHT22;15592;53.656;7.276;2022-08-18T11:42:19;19.60;99.90
28336;DHT22;15592;53.656;7.276;2022-08-18T11:44:53;19.60;99.90
28336;DHT22;15592;53.656;7.276;2022-08-18T11:47:21;19.50;99.90
28336;DHT22;15592;53.656;7.276;2022-08-18T11:50:13;19.50;99.90
28336;DHT22;15592;53.656;7.276;2022-08-18T11:52:52;19.60;99.90
28336;DHT22;15592;53.656;7.276;2022-08-18T11:55:29;19.60;99.90
28336;DHT22;15592;53.656;7.276;2022-08-18T11:57:58;19.70;99.90
28336;DHT22;15592;53.656;7.276;2022-08-18T12:03:29;19.60;99.90
28336;DHT22;15592;53.656;7.276;2022-08-18T12:06:07;19.60;99.90
28336;DHT22;15592;53.656;7.276;2022-08-18T12:08:37;19.60;99.90
28336;DHT22;15592;53.656;7.276;2022-08-18T12:11:21;19.70;99.90
28336;DHT22;15592;53.656;7.276;2022-08-18T12:13:57;19.70;99.90
28336;DHT22;15592;53.656;7.276;2022-08-18T12:16:40;19.80;99.90
28336;DHT22;15592;53.656;7.276;2022-08-18T12:19:10;19.90;99.90
28336;DHT22;15592;53.656;7.276;2022-08-18T12:21:44;19.90;99.90
28336;DHT22;15592;53.656;7.276;2022-08-18T12:24:30;19.80;99.90
28336;DHT22;15592;53.656;7.276;2022-08-18T12:26:57;19.80;99.90
28336;DHT22;15592;53.656;7.276;2022-08-18T12:29:24;19.80;99.90
28336;DHT22;15592;53.656;7.276;2022-08-18T12:31:52;19.80;99.90
28336;DHT22;15592;53.656;7.276;2022-08-18T12:34:23;19.80;99.90
28336;DHT22;15592;53.656;7.276;2022-08-18T12:36:55;19.70;99.90
28336;DHT22;15592;53.656;7.276;2022-08-18T12:39:21;19.70;99.90
28336;DHT22;15592;53.656;7.276;2022-08-18T12:41:49;19.70;99.90
28336;DHT22;15592;53.656;7.276;2022-08-18T12:44:24;19.60;99.90
28336;DHT22;15592;53.656;7.276;2022-08-18T12:46:50;19.70;99.90
28336;DHT22;15592;53.656;7.276;2022-08-18T12:49:19;19.70;99.90
28336;DHT22;15592;53.656;7.276;2022-08-18T12:51:49;19.70;99.90
28336;DHT22;15592;53.656;7.276;2022-08-18T12:54:15;19.70;99.90
28336;DHT22;15592;53.656;7.276;2022-08-18T12:56:41;19.60;99.90
28336;DHT22;15592;53.656;7.276;2022-08-18T12:59:09;19.60;99.90
28336;DHT22;15592;53.656;7.276;2022-08-18T13:01:36;19.50;99.90
28336;DHT22;15592;53.656;7.276;2022-08-18T13:04:03;19.50;99.90
28336;DHT22;15592;53.656;7.276;2022-08-18T13:06:32;19.50;99.90
28336;DHT22;15592;53.656;7.276;2022-08-18T13:08:58;19.50;99.90
28336;DHT22;15592;53.656;7.276;2022-08-18T13:11:24;19.40;99.90
28336;DHT22;15592;53.656;7.276;2022-08-18T13:13:51;19.40;99.90
28336;DHT22;15592;53.656;7.276;2022-08-18T13:16:18;19.50;99.90
28336;DHT22;15592;53.656;7.276;2022-08-18T13:18:44;19.70;99.90
28336;DHT22;15592;53.656;7.276;2022-08-18T13:21:15;19.80;99.90
28336;DHT22;15592;53.656;7.276;2022-08-18T13:23:42;19.80;99.90
28336;DHT22;15592;53.656;7.276;2022-08-18T13:26:15;19.80;99.90
28336;DHT22;15592;53.656;7.276;2022-08-18T13:29:22;19.70;99.90
28336;DHT22;15592;53.656;7.276;2022-08-18T13:31:50;19.60;99.90
28336;DHT22;15592;53.656;7.276;2022-08-18T13:34:21;19.60;99.90
28336;DHT22;15592;53.656;7.276;2022-08-18T13:36:47;19.50;99.90
28336;DHT22;15592;53.656;7.276;2022-08-18T13:39:18;19.50;99.90
28336;DHT22;15592;53.656;7.276;2022-08-18T13:41:45;19.50;99.90
28336;DHT22;15592;53.656;7.276;2022-08-18T13:44:12;19.40;99.90
28336;DHT22;15592;53.656;7.276;2022-08-18T13:46:39;19.50;99.90
28336;DHT22;15592;53.656;7.276;2022-08-18T13:51:40;19.50;99.90
28336;DHT22;15592;53.656;7.276;2022-08-18T13:54:07;19.50;99.90
28336;DHT22;15592;53.656;7.276;2022-08-18T13:56:33;19.40;99.90
28336;DHT22;15592;53.656;7.276;2022-08-18T13:58:59;19.50;99.90
28336;DHT22;15592;53.656;7.276;2022-08-18T14:01:32;19.50;99.90
28336;DHT22;15592;53.656;7.276;2022-08-18T14:03:58;19.50;99.90
28336;DHT22;15592;53.656;7.276;2022-08-18T14:06:53;19.50;99.90
28336;DHT22;15592;53.656;7.276;2022-08-18T14:10:02;19.50;99.90
28336;DHT22;15592;53.656;7.276;2022-08-18T14:12:33;19.50;99.90
28336;DHT22;15592;53.656;7.276;2022-08-18T14:18:07;19.60;99.90
28336;DHT22;15592;53.656;7.276;2022-08-18T14:20:34;19.60;99.90
28336;DHT22;15592;53.656;7.276;2022-08-18T14:23:21;19.60;99.90
28336;DHT22;15592;53.656;7.276;2022-08-18T14:26:05;19.60;99.90
28336;DHT22;15592;53.656;7.276;2022-08-18T14:29:25;19.70;99.90
28336;DHT22;15592;53.656;7.276;2022-08-18T14:31:51;19.70;99.90
28336;DHT22;15592;53.656;7.276;2022-08-18T14:34:17;19.80;99.90
28336;DHT22;15592;53.656;7.276;2022-08-18T14:36:43;19.80;99.90
28336;DHT22;15592;53.656;7.276;2022-08-18T14:39:09;19.90;99.90
28336;DHT22;15592;53.656;7.276;2022-08-18T14:41:35;19.90;99.90
28336;DHT22;15592;53.656;7.276;2022-08-18T14:44:09;19.90;99.90
28336;DHT22;15592;53.656;7.276;2022-08-18T14:47:02;19.90;99.90
28336;DHT22;15592;53.656;7.276;2022-08-18T14:49:28;20.00;99.90
28336;DHT22;15592;53.656;7.276;2022-08-18T14:51:57;20.10;99.90
28336;DHT22;15592;53.656;7.276;2022-08-18T14:54:23;20.10;99.90
28336;DHT22;15592;53.656;7.276;2022-08-18T14:56:48;20.00;99.90
28336;DHT22;15592;53.656;7.276;2022-08-18T15:06:03;19.90;99.90
28336;DHT22;15592;53.656;7.276;2022-08-18T15:08:36;19.80;99.90
28336;DHT22;15592;53.656;7.276;2022-08-18T15:11:04;19.70;99.90
28336;DHT22;15592;53.656;7.276;2022-08-18T15:13:30;19.60;99.90
28336;DHT22;15592;53.656;7.276;2022-08-18T15:15:56;19.60;99.90
28336;DHT22;15592;53.656;7.276;2022-08-18T15:19:06;19.60;99.90
28336;DHT22;15592;53.656;7.276;2022-08-18T15:21:38;19.60;99.90
28336;DHT22;15592;53.656;7.276;2022-08-18T15:24:41;19.60;99.90
28336;DHT22;15592;53.656;7.276;2022-08-18T15:27:34;19.60;99.90
28336;DHT22;15592;53.656;7.276;2022-08-18T15:30:05;19.70;99.90
28336;DHT22;15592;53.656;7.276;2022-08-18T15:32:33;19.80;99.90
28336;DHT22;15592;53.656;7.276;2022-08-18T15:35:03;19.80;99.90
28336;DHT22;15592;53.656;7.276;2022-08-18T15:37:34;19.90;99.90
28336;DHT22;15592;53.656;7.276;2022-08-18T15:40:18;19.90;99.90
28336;DHT22;15592;53.656;7.276;2022-08-18T15:42:55;19.90;99.90
28336;DHT22;15592;53.656;7.276;2022-08-18T15:45:36;19.90;99.90
28336;DHT22;15592;53.656;7.276;2022-08-18T15:48:12;19.80;99.90
28336;DHT22;15592;53.656;7.276;2022-08-18T15:50:38;19.70;99.90
28336;DHT22;15592;53.656;7.276;2022-08-18T15:53:06;19.70;99.90
28336;DHT22;15592;53.656;7.276;2022-08-18T15:55:38;19.60;99.90
28336;DHT22;15592;53.656;7.276;2022-08-18T15:58:04;19.50;99.90
28336;DHT22;15592;53.656;7.276;2022-08-18T16:00:30;19.50;99.90
28336;DHT22;15592;53.656;7.276;2022-08-18T16:03:15;19.40;99.90
28336;DHT22;15592;53.656;7.276;2022-08-18T16:05:47;19.40;99.90
28336;DHT22;15592;53.656;7.276;2022-08-18T16:08:13;19.40;99.90
28336;DHT22;15592;53.656;7.276;2022-08-18T16:10:40;19.40;99.90
28336;DHT22;15592;53.656;7.276;2022-08-18T16:13:06;19.30;99.90
28336;DHT22;15592;53.656;7.276;2022-08-18T16:15:36;19.30;99.90
28336;DHT22;15592;53.656;7.276;2022-08-18T16:18:03;19.30;99.90
28336;DHT22;15592;53.656;7.276;2022-08-18T16:20:29;19.30;99.90
28336;DHT22;15592;53.656;7.276;2022-08-18T16:22:56;19.30;99.90
28336;DHT22;15592;53.656;7.276;2022-08-18T16:25:25;19.20;99.90
28336;DHT22;15592;53.656;7.276;2022-08-18T16:27:51;19.20;99.90
28336;DHT22;15592;53.656;7.276;2022-08-18T16:30:23;19.20;99.90
28336;DHT22;15592;53.656;7.276;2022-08-18T16:32:49;19.20;99.90
28336;DHT22;15592;53.656;7.276;2022-08-18T16:35:16;19.20;99.90
28336;DHT22;15592;53.656;7.276;2022-08-18T16:37:43;19.20;99.90
28336;DHT22;15592;53.656;7.276;2022-08-18T16:40:12;19.20;99.90
28336;DHT22;15592;53.656;7.276;2022-08-18T16:42:37;19.20;99.90
28336;DHT22;15592;53.656;7.276;2022-08-18T16:45:04;19.20;99.90
28336;DHT22;15592;53.656;7.276;2022-08-18T16:47:31;19.20;99.90
28336;DHT22;15592;53.656;7.276;2022-08-18T16:50:02;19.30;99.90
28336;DHT22;15592;53.656;7.276;2022-08-18T16:52:29;19.30;99.90
28336;DHT22;15592;53.656;7.276;2022-08-18T16:54:56;19.30;99.90
28336;DHT22;15592;53.656;7.276;2022-08-18T16:57:22;19.30;99.90
28336;DHT22;15592;53.656;7.276;2022-08-18T17:00:08;19.30;99.90
28336;DHT22;15592;53.656;7.276;2022-08-18T17:02:53;19.40;99.90
28336;DHT22;15592;53.656;7.276;2022-08-18T17:05:37;19.50;99.90
28336;DHT22;15592;53.656;7.276;2022-08-18T17:08:03;19.60;99.90
28336;DHT22;15592;53.656;7.276;2022-08-18T17:10:30;19.60;99.90
28336;DHT22;15592;53.656;7.276;2022-08-18T17:13:03;19.70;99.90
28336;DHT22;15592;53.656;7.276;2022-08-18T17:15:29;19.70;99.90
28336;DHT22;15592;53.656;7.276;2022-08-18T17:17:55;19.60;99.90
28336;DHT22;15592;53.656;7.276;2022-08-18T17:20:21;19.70;99.90
28336;DHT22;15592;53.656;7.276;2022-08-18T17:22:46;19.70;99.90
28336;DHT22;15592;53.656;7.276;2022-08-18T17:25:15;19.60;99.90
28336;DHT22;15592;53.656;7.276;2022-08-18T17:27:46;19.60;99.90
28336;DHT22;15592;53.656;7.276;2022-08-18T17:30:15;19.50;99.90
28336;DHT22;15592;53.656;7.276;2022-08-18T17:32:49;19.50;99.90
28336;DHT22;15592;53.656;7.276;2022-08-18T17:35:26;19.50;99.90
28336;DHT22;15592;53.656;7.276;2022-08-18T17:40:45;19.30;99.90
28336;DHT22;15592;53.656;7.276;2022-08-18T17:43:17;19.30;99.90
28336;DHT22;15592;53.656;7.276;2022-08-18T17:45:48;19.30;99.90
28336;DHT22;15592;53.656;7.276;2022-08-18T17:48:21;19.20;99.90
28336;DHT22;15592;53.656;7.276;2022-08-18T17:50:52;19.10;99.90
28336;DHT22;15592;53.656;7.276;2022-08-18T17:53:45;19.10;99.90
28336;DHT22;15592;53.656;7.276;2022-08-18T17:56:19;19.10;99.90
28336;DHT22;15592;53.656;7.276;2022-08-18T17:58:53;18.90;99.90
28336;DHT22;15592;53.656;7.276;2022-08-18T18:01:22;18.80;99.90
28336;DHT22;15592;53.656;7.276;2022-08-18T18:03:48;18.70;99.90
28336;DHT22;15592;53.656;7.276;2022-08-18T18:09:11;18.60;99.90
28336;DHT22;15592;53.656;7.276;2022-08-18T18:11:52;18.50;99.90
28336;DHT22;15592;53.656;7.276;2022-08-18T18:14:28;18.40;99.90
28336;DHT22;15592;53.656;7.276;2022-08-18T18:17:45;18.40;99.90
28336;DHT22;15592;53.656;7.276;2022-08-18T18:20:09;18.30;99.90
28336;DHT22;15592;53.656;7.276;2022-08-18T18:22:37;18.30;99.90
28336;DHT22;15592;53.656;7.276;2022-08-18T18:27:56;18.20;99.90
28336;DHT22;15592;53.656;7.276;2022-08-18T18:30:23;18.20;99.90
28336;DHT22;15592;53.656;7.276;2022-08-18T18:33:12;18.10;99.90
28336;DHT22;15592;53.656;7.276;2022-08-18T18:38:32;18.00;99.90
28336;DHT22;15592;53.656;7.276;2022-08-18T18:41:03;18.00;99.90
28336;DHT22;15592;53.656;7.276;2022-08-18T18:43:37;17.90;99.90
28336;DHT22;15592;53.656;7.276;2022-08-18T18:55:08;17.80;99.90
28336;DHT22;15592;53.656;7.276;2022-08-18T19:14:26;17.70;99.90
28336;DHT22;15592;53.656;7.276;2022-08-18T19:17:41;17.70;99.90
28336;DHT22;15592;53.656;7.276;2022-08-18T19:20:17;17.60;99.90
28336;DHT22;15592;53.656;7.276;2022-08-18T19:22:56;17.60;99.90
28336;DHT22;15592;53.656;7.276;2022-08-18T19:28:06;17.50;99.90
28336;DHT22;15592;53.656;7.276;2022-08-18T19:30:37;17.50;99.90
28336;DHT22;15592;53.656;7.276;2022-08-18T19:33:05;17.50;99.90
28336;DHT22;15592;53.656;7.276;2022-08-18T19:35:47;17.50;99.90
28336;DHT22;15592;53.656;7.276;2022-08-18T19:40:55;17.40;99.90